Time;durP1;ratioP1;P1;durP2;ratioP2;P2;SDS_P1;SDS_P2;PMS_P1;PMS_P2;Temp;Humidity;BMP_temperature;BMP_pressure;BME280_temperature;BME280_humidity;BME280_pressure;Samples;Min_cycle;Max_cycle;Signal;HPM_P1;HPM_P2
2023/01/23 00:01:57;;;;;;;29.93;19.10;;;1.30;36.00;;;;;;6032406;23;20467;-59
2023/01/23 00:04:24;;;;;;;29.50;17.77;;;1.30;36.10;;;;;;6032799;23;20427;-59
2023/01/23 00:06:52;;;;;;;31.20;19.00;;;1.30;36.10;;;;;;6033347;23;20470;-61
2023/01/23 00:09:18;;;;;;;30.83;18.67;;;1.20;36.10;;;;;;6034355;23;20925;-60
2023/01/23 00:11:45;;;;;;;27.83;17.27;;;1.20;36.10;;;;;;6030169;23;20420;-60
2023/01/23 00:14:12;;;;;;;28.97;17.70;;;1.20;36.20;;;;;;6034407;23;20918;-60
2023/01/23 00:16:38;;;;;;;32.07;18.90;;;1.20;36.40;;;;;;6032796;23;20949;-60
2023/01/23 00:19:05;;;;;;;34.30;17.67;;;1.20;36.40;;;;;;6034207;23;20444;-60
2023/01/23 00:21:32;;;;;;;36.10;19.83;;;1.20;36.30;;;;;;6034149;23;20420;-60
2023/01/23 00:24:01;;;;;;;31.03;18.67;;;1.20;36.40;;;;;;6032437;23;20424;-60
2023/01/23 00:26:31;;;;;;;32.47;19.77;;;1.20;36.50;;;;;;6034378;23;20761;-60
2023/01/23 00:28:58;;;;;;;35.60;20.63;;;1.20;37.10;;;;;;6033478;23;20420;-60
2023/01/23 00:31:27;;;;;;;27.93;18.33;;;1.20;36.60;;;;;;6033366;23;20444;-60
2023/01/23 00:33:56;;;;;;;31.43;17.83;;;1.20;36.70;;;;;;6034671;23;20507;-60
2023/01/23 00:36:23;;;;;;;30.07;17.97;;;1.10;37.00;;;;;;6033989;23;20505;-60
2023/01/23 00:38:50;;;;;;;28.00;17.17;;;1.10;37.10;;;;;;6034922;23;20443;-60
2023/01/23 00:41:18;;;;;;;32.23;18.60;;;1.10;37.10;;;;;;6033296;23;20427;-60
2023/01/23 00:43:45;;;;;;;30.47;17.60;;;1.10;37.30;;;;;;6034957;23;20420;-59
2023/01/23 00:46:12;;;;;;;33.30;17.80;;;1.00;37.40;;;;;;6039981;23;20452;-60
2023/01/23 00:48:39;;;;;;;33.90;18.07;;;1.00;37.60;;;;;;6044436;23;20423;-60
2023/01/23 00:51:06;;;;;;;31.20;17.90;;;0.90;38.10;;;;;;6043024;23;20420;-60
2023/01/23 00:53:32;;;;;;;35.57;20.00;;;0.90;38.10;;;;;;6044478;23;20428;-60
2023/01/23 00:55:59;;;;;;;32.80;18.50;;;0.90;38.10;;;;;;6044774;23;20459;-60
2023/01/23 00:58:27;;;;;;;32.87;19.57;;;0.90;38.40;;;;;;6041179;23;20455;-60
2023/01/23 01:00:54;;;;;;;33.27;19.10;;;0.90;38.60;;;;;;6033469;23;20518;-60
2023/01/23 01:03:21;;;;;;;35.97;19.60;;;0.80;38.60;;;;;;6033973;23;20426;-59
2023/01/23 01:05:47;;;;;;;35.83;18.23;;;0.90;38.60;;;;;;6034813;23;20446;-59
2023/01/23 01:08:14;;;;;;;33.93;19.17;;;0.90;38.80;;;;;;6034944;23;20431;-60
2023/01/23 01:10:41;;;;;;;31.67;18.43;;;0.90;38.80;;;;;;6034091;23;20430;-60
2023/01/23 01:13:09;;;;;;;32.40;18.43;;;0.80;38.80;;;;;;6034227;23;20425;-60
2023/01/23 01:15:37;;;;;;;31.67;18.10;;;0.80;38.90;;;;;;6034088;23;20428;-59
2023/01/23 01:18:05;;;;;;;33.83;18.97;;;0.80;39.00;;;;;;6034301;23;20466;-61
2023/01/23 01:20:31;;;;;;;33.37;18.10;;;0.80;39.50;;;;;;6034881;23;20416;-60
2023/01/23 01:22:59;;;;;;;33.97;18.77;;;0.80;38.90;;;;;;6033806;23;20424;-59
2023/01/23 01:25:26;;;;;;;33.83;19.03;;;0.90;38.90;;;;;;6034301;23;20481;-59
2023/01/23 01:27:54;;;;;;;29.27;16.87;;;0.90;38.90;;;;;;6034131;23;20427;-59
2023/01/23 01:30:21;;;;;;;32.33;18.47;;;0.90;38.80;;;;;;6033291;23;20426;-60
2023/01/23 01:32:50;;;;;;;33.40;17.60;;;0.90;38.70;;;;;;6033692;23;20420;-60
2023/01/23 01:35:17;;;;;;;32.20;17.97;;;0.90;38.60;;;;;;6033660;23;20431;-60
2023/01/23 01:37:44;;;;;;;30.80;17.00;;;0.90;38.80;;;;;;6034387;23;20423;-59
2023/01/23 01:40:15;;;;;;;31.37;17.50;;;0.90;38.70;;;;;;6033807;23;20444;-59
2023/01/23 01:42:43;;;;;;;34.03;19.03;;;0.90;38.70;;;;;;6033626;23;20408;-59
2023/01/23 01:45:43;;;;;;;32.47;18.37;;;1.00;38.60;;;;;;6034064;23;20428;-60
2023/01/23 01:48:11;;;;;;;32.27;18.63;;;1.00;38.60;;;;;;6035333;23;20416;-59
2023/01/23 01:50:38;;;;;;;32.60;19.27;;;1.00;38.40;;;;;;6035754;23;20514;-59
2023/01/23 01:53:06;;;;;;;30.60;18.23;;;1.00;38.30;;;;;;6035802;23;20419;-59
2023/01/23 01:55:33;;;;;;;32.00;18.50;;;1.00;38.40;;;;;;6035506;23;20427;-60
2023/01/23 01:58:00;;;;;;;29.30;17.30;;;1.00;38.30;;;;;;6034465;23;20408;-59
2023/01/23 02:00:26;;;;;;;31.20;17.87;;;1.00;38.20;;;;;;6033823;23;20444;-59
2023/01/23 02:02:57;;;;;;;32.83;17.67;;;1.00;38.20;;;;;;6035797;23;20431;-59
2023/01/23 02:05:28;;;;;;;28.20;16.40;;;1.00;38.10;;;;;;6035997;23;20404;-60
2023/01/23 02:08:00;;;;;;;32.90;18.77;;;1.10;38.20;;;;;;6035661;23;20404;-59
2023/01/23 02:10:27;;;;;;;33.77;18.43;;;1.10;38.10;;;;;;6034857;23;20404;-59
2023/01/23 02:12:54;;;;;;;33.67;20.13;;;1.10;38.00;;;;;;6035104;23;20428;-59
2023/01/23 02:15:22;;;;;;;27.67;16.13;;;1.10;38.00;;;;;;6035829;23;20427;-59
2023/01/23 02:17:53;;;;;;;32.30;17.27;;;1.10;38.00;;;;;;6035975;23;20905;-59
2023/01/23 02:20:23;;;;;;;31.63;19.70;;;1.00;38.00;;;;;;6035069;23;20484;-60
2023/01/23 02:23:00;;;;;;;30.90;18.17;;;1.00;38.00;;;;;;6034745;23;20431;-59
2023/01/23 02:25:31;;;;;;;29.10;15.87;;;0.90;38.20;;;;;;6035725;23;20467;-59
2023/01/23 02:28:00;;;;;;;28.87;17.27;;;0.90;38.30;;;;;;6035542;23;20780;-61
2023/01/23 02:30:27;;;;;;;28.20;16.07;;;0.90;38.30;;;;;;6035191;23;20416;-59
2023/01/23 02:32:54;;;;;;;29.03;15.83;;;0.80;39.10;;;;;;6035195;23;20427;-59
2023/01/23 02:35:25;;;;;;;28.67;15.70;;;0.70;38.70;;;;;;6034920;23;20945;-60
2023/01/23 02:37:54;;;;;;;27.90;16.10;;;0.70;38.70;;;;;;6032980;23;20411;-60
2023/01/23 02:40:29;;;;;;;25.30;14.73;;;0.70;39.00;;;;;;6035113;23;20450;-61
2023/01/23 02:42:56;;;;;;;27.03;15.50;;;0.60;39.10;;;;;;6032160;23;20411;-60
2023/01/23 02:45:25;;;;;;;29.20;15.50;;;0.60;39.50;;;;;;6033203;23;20420;-60
2023/01/23 02:47:51;;;;;;;32.53;17.43;;;0.60;39.50;;;;;;6034575;23;20828;-59
2023/01/23 02:50:18;;;;;;;30.13;15.83;;;0.60;39.60;;;;;;6034939;23;20417;-60
2023/01/23 02:52:46;;;;;;;30.20;16.80;;;0.50;39.70;;;;;;6034846;23;20420;-59
2023/01/23 02:55:12;;;;;;;26.20;15.83;;;0.50;39.80;;;;;;6034715;23;21183;-59
2023/01/23 02:57:39;;;;;;;26.80;16.43;;;0.50;39.80;;;;;;6033336;23;20459;-59
2023/01/23 03:00:15;;;;;;;33.03;17.73;;;0.50;39.80;;;;;;6034229;23;20444;-59
2023/01/23 03:02:43;;;;;;;27.17;14.43;;;0.50;39.80;;;;;;6034144;23;20408;-59
2023/01/23 03:05:10;;;;;;;28.07;16.57;;;0.50;39.70;;;;;;6035579;23;20427;-59
2023/01/23 03:07:37;;;;;;;27.30;16.13;;;0.60;39.70;;;;;;6034416;23;20475;-59
2023/01/23 03:10:06;;;;;;;28.80;16.90;;;0.60;39.50;;;;;;6031798;23;20901;-59
2023/01/23 03:12:33;;;;;;;30.10;16.37;;;0.60;39.50;;;;;;6034455;23;20428;-60
2023/01/23 03:15:00;;;;;;;26.27;15.57;;;0.70;39.40;;;;;;6034197;23;20419;-59
2023/01/23 03:17:27;;;;;;;30.00;16.23;;;0.70;39.30;;;;;;6035416;23;20545;-59
2023/01/23 03:19:56;;;;;;;25.23;15.63;;;0.70;39.20;;;;;;6033862;23;20843;-60
2023/01/23 03:22:23;;;;;;;30.63;17.50;;;0.80;39.00;;;;;;6034113;23;21004;-59
2023/01/23 03:24:50;;;;;;;29.57;15.30;;;0.80;38.90;;;;;;6033505;23;20427;-59
2023/01/23 03:27:17;;;;;;;29.37;15.73;;;0.80;38.90;;;;;;6034407;23;20447;-60
2023/01/23 03:32:28;;;;;;;26.73;15.90;;;0.90;38.80;;;;;;6033909;23;20778;-61
2023/01/23 03:34:56;;;;;;;26.80;16.20;;;0.90;38.60;;;;;;6034926;23;20431;-60
2023/01/23 03:37:23;;;;;;;26.07;15.80;;;0.80;38.50;;;;;;6035236;23;20444;-59
2023/01/23 03:42:35;;;;;;;26.50;15.23;;;0.80;38.50;;;;;;6034379;23;20393;-60
2023/01/23 03:45:02;;;;;;;28.70;15.90;;;0.70;38.50;;;;;;6034187;23;20420;-61
2023/01/23 03:47:29;;;;;;;30.30;16.47;;;0.70;38.70;;;;;;6034484;23;20809;-61
2023/01/23 03:49:57;;;;;;;28.40;17.37;;;0.70;38.70;;;;;;6034521;23;20686;-59
2023/01/23 03:52:23;;;;;;;24.27;14.23;;;0.70;38.70;;;;;;6031882;23;20447;-59
2023/01/23 03:54:50;;;;;;;26.73;15.70;;;0.70;38.60;;;;;;6033740;23;20424;-60
2023/01/23 03:57:17;;;;;;;22.53;13.47;;;0.70;38.60;;;;;;6033271;23;20451;-60
2023/01/23 03:59:44;;;;;;;24.17;13.63;;;0.70;38.50;;;;;;6034783;23;20451;-60
2023/01/23 04:02:11;;;;;;;28.77;16.80;;;0.60;38.50;;;;;;6033184;23;20956;-60
2023/01/23 04:04:37;;;;;;;26.63;15.43;;;0.70;38.70;;;;;;6034014;23;20420;-60
2023/01/23 04:07:05;;;;;;;29.60;15.60;;;0.70;38.70;;;;;;6033620;23;20979;-60
2023/01/23 04:09:33;;;;;;;27.97;15.70;;;0.70;38.70;;;;;;6035087;23;20538;-59
2023/01/23 04:12:00;;;;;;;29.53;16.27;;;0.70;38.60;;;;;;6032951;23;20430;-59
2023/01/23 04:14:29;;;;;;;29.97;16.70;;;0.80;38.50;;;;;;6034903;23;20427;-59
2023/01/23 04:16:56;;;;;;;30.50;17.70;;;0.80;38.60;;;;;;6034128;23;20440;-59
2023/01/23 04:19:23;;;;;;;32.80;17.53;;;0.80;38.30;;;;;;6033780;23;20448;-59
2023/01/23 04:21:50;;;;;;;30.40;16.63;;;0.80;38.20;;;;;;6033505;23;20420;-59
2023/01/23 04:24:18;;;;;;;34.67;17.87;;;0.80;38.10;;;;;;6034958;23;20420;-59
2023/01/23 04:26:45;;;;;;;33.83;18.43;;;0.80;38.10;;;;;;6032937;23;20953;-60
2023/01/23 04:29:12;;;;;;;29.37;17.03;;;0.80;38.10;;;;;;6034628;23;20431;-59
2023/01/23 04:31:40;;;;;;;35.93;20.47;;;0.80;38.20;;;;;;6031831;23;20976;-60
2023/01/23 04:34:07;;;;;;;32.93;19.60;;;0.70;38.10;;;;;;6033145;23;20426;-59
2023/01/23 04:36:33;;;;;;;35.13;18.47;;;0.70;38.00;;;;;;6032369;23;20784;-60
2023/01/23 04:39:01;;;;;;;32.13;18.40;;;0.70;37.90;;;;;;6032414;23;20796;-59
2023/01/23 04:41:30;;;;;;;32.70;18.87;;;0.70;37.90;;;;;;6032801;23;21107;-61
2023/01/23 04:44:18;;;;;;;32.67;17.83;;;0.70;38.20;;;;;;6032895;23;20431;-59
2023/01/23 04:46:44;;;;;;;31.53;18.60;;;0.70;37.90;;;;;;6032837;23;20436;-59
2023/01/23 04:49:10;;;;;;;29.47;16.80;;;0.70;37.80;;;;;;6034279;23;20419;-59
2023/01/23 04:51:37;;;;;;;28.80;16.57;;;0.70;37.70;;;;;;6031262;23;20932;-60
2023/01/23 04:54:04;;;;;;;32.57;18.07;;;0.70;37.70;;;;;;6033853;23;20420;-59
2023/01/23 04:56:32;;;;;;;30.30;18.07;;;0.70;37.70;;;;;;6033024;23;20448;-60
2023/01/23 04:58:59;;;;;;;36.00;17.43;;;0.70;37.70;;;;;;6033662;23;20431;-58
2023/01/23 05:01:26;;;;;;;34.13;19.67;;;0.70;37.70;;;;;;6032824;23;20446;-60
2023/01/23 05:03:53;;;;;;;31.00;16.03;;;0.70;37.60;;;;;;6033066;23;20693;-59
2023/01/23 05:06:20;;;;;;;25.70;15.63;;;0.70;37.70;;;;;;6033654;23;20451;-59
2023/01/23 05:08:47;;;;;;;29.13;17.93;;;0.70;37.60;;;;;;6032791;23;20419;-58
2023/01/23 05:11:13;;;;;;;26.20;15.83;;;0.70;37.60;;;;;;6030196;23;20415;-60
2023/01/23 05:13:41;;;;;;;28.17;16.17;;;0.70;37.50;;;;;;6032088;23;20427;-59
2023/01/23 05:16:08;;;;;;;29.17;14.20;;;0.70;37.50;;;;;;6031100;23;21112;-59
2023/01/23 05:18:35;;;;;;;27.17;15.57;;;0.60;37.40;;;;;;6032964;23;20427;-59
2023/01/23 05:21:02;;;;;;;28.17;15.77;;;0.60;37.50;;;;;;6033527;23;20444;-59
2023/01/23 05:23:28;;;;;;;26.80;14.83;;;0.60;37.40;;;;;;6033045;23;20447;-59
2023/01/23 05:25:55;;;;;;;27.60;15.03;;;0.60;37.40;;;;;;6030337;23;20467;-59
2023/01/23 05:28:22;;;;;;;28.53;16.40;;;0.60;37.40;;;;;;6034242;23;20420;-58
2023/01/23 05:30:50;;;;;;;27.60;15.30;;;0.60;37.30;;;;;;6032571;23;20444;-60
2023/01/23 05:33:17;;;;;;;22.90;13.53;;;0.60;37.20;;;;;;6034430;23;20420;-59
2023/01/23 05:35:43;;;;;;;26.83;15.03;;;0.50;37.20;;;;;;6034032;23;20507;-59
2023/01/23 05:38:11;;;;;;;23.60;14.67;;;0.50;37.30;;;;;;6034358;23;20443;-59
2023/01/23 05:40:38;;;;;;;26.07;14.97;;;0.50;37.20;;;;;;6033794;23;20440;-59
2023/01/23 05:43:05;;;;;;;27.30;15.47;;;0.50;37.20;;;;;;6033143;23;20420;-59
2023/01/23 05:45:33;;;;;;;25.17;14.43;;;0.50;37.30;;;;;;6031653;23;20755;-59
2023/01/23 05:48:01;;;;;;;27.03;14.80;;;0.50;37.40;;;;;;6033546;23;20518;-60
2023/01/23 05:50:28;;;;;;;28.40;15.20;;;0.50;37.30;;;;;;6032578;23;21087;-59
2023/01/23 05:52:54;;;;;;;31.57;16.07;;;0.50;37.30;;;;;;6034053;23;20424;-59
2023/01/23 05:55:21;;;;;;;26.57;15.10;;;0.40;37.20;;;;;;6031400;23;20420;-60
2023/01/23 05:57:48;;;;;;;27.17;14.83;;;0.40;37.20;;;;;;6033647;23;20427;-60
2023/01/23 06:00:16;;;;;;;28.07;14.27;;;0.40;37.30;;;;;;6033044;23;20785;-60
2023/01/23 06:02:43;;;;;;;28.50;14.87;;;0.40;37.30;;;;;;6033408;23;20659;-61
2023/01/23 06:05:11;;;;;;;29.80;15.50;;;0.40;37.40;;;;;;6032532;23;20431;-60
2023/01/23 06:07:38;;;;;;;28.03;15.23;;;0.40;37.50;;;;;;6034504;23;20448;-60
2023/01/23 06:10:07;;;;;;;28.10;15.07;;;0.40;37.40;;;;;;6034353;23;20465;-60
2023/01/23 06:12:33;;;;;;;29.50;15.73;;;0.40;37.50;;;;;;6033443;23;20431;-62
2023/01/23 06:15:00;;;;;;;29.20;15.67;;;0.40;37.60;;;;;;6034137;23;20423;-60
2023/01/23 06:17:27;;;;;;;29.63;15.57;;;0.40;37.70;;;;;;6031508;23;20670;-60
2023/01/23 06:19:53;;;;;;;29.10;15.17;;;0.50;37.70;;;;;;6031796;23;20432;-60
2023/01/23 06:22:22;;;;;;;27.87;15.90;;;0.50;37.70;;;;;;6034100;23;20420;-60
2023/01/23 06:24:49;;;;;;;33.20;16.00;;;0.50;37.50;;;;;;6029710;23;20466;-59
2023/01/23 06:27:15;;;;;;;25.13;12.83;;;0.50;37.60;;;;;;6033378;23;20448;-59
2023/01/23 06:29:42;;;;;;;25.77;14.20;;;0.50;37.60;;;;;;6031021;23;20728;-61
2023/01/23 06:32:09;;;;;;;28.77;15.50;;;0.50;37.60;;;;;;6033002;23;20444;-60
2023/01/23 06:34:36;;;;;;;28.67;15.00;;;0.50;37.60;;;;;;6034586;23;20416;-61
2023/01/23 06:37:03;;;;;;;28.30;15.90;;;0.60;37.60;;;;;;6035365;23;20495;-59
2023/01/23 06:39:31;;;;;;;34.80;17.20;;;0.50;37.70;;;;;;6034815;23;20514;-61
2023/01/23 06:41:57;;;;;;;33.47;15.67;;;0.60;37.80;;;;;;6035620;23;20446;-59
2023/01/23 06:44:24;;;;;;;30.30;15.13;;;0.60;37.80;;;;;;6035048;23;20420;-60
2023/01/23 06:46:53;;;;;;;28.00;14.77;;;0.60;37.80;;;;;;6035305;23;20444;-59
2023/01/23 06:49:20;;;;;;;23.20;13.93;;;0.60;37.80;;;;;;6033829;23;20965;-59
2023/01/23 06:51:47;;;;;;;28.60;15.83;;;0.60;37.60;;;;;;6035918;23;20862;-60
2023/01/23 06:54:13;;;;;;;28.23;15.73;;;0.60;37.70;;;;;;6034071;23;20909;-60
2023/01/23 06:56:41;;;;;;;25.40;15.70;;;0.60;37.70;;;;;;6035102;23;20448;-60
2023/01/23 06:59:08;;;;;;;24.27;14.13;;;0.60;37.60;;;;;;6034346;23;20427;-60
2023/01/23 07:01:35;;;;;;;22.40;12.93;;;0.60;37.70;;;;;;6031273;23;20958;-59
2023/01/23 07:04:01;;;;;;;26.13;13.70;;;0.60;37.50;;;;;;6034513;23;20427;-59
2023/01/23 07:06:30;;;;;;;22.57;12.70;;;0.70;37.40;;;;;;6031595;23;20448;-58
2023/01/23 07:08:57;;;;;;;22.10;12.60;;;0.60;37.50;;;;;;6034090;23;20421;-59
2023/01/23 07:11:24;;;;;;;23.97;12.87;;;0.60;37.50;;;;;;6032739;23;20424;-59
2023/01/23 07:13:52;;;;;;;25.13;13.63;;;0.60;37.40;;;;;;6034896;23;20434;-61
2023/01/23 07:16:19;;;;;;;25.30;13.70;;;0.70;37.40;;;;;;6031539;23;20451;-59
2023/01/23 07:18:46;;;;;;;24.23;13.50;;;0.70;37.30;;;;;;6032684;23;20424;-61
2023/01/23 07:21:12;;;;;;;21.87;11.90;;;0.60;37.40;;;;;;6032276;23;20474;-59
2023/01/23 07:23:39;;;;;;;24.93;14.20;;;0.70;37.40;;;;;;6033279;23;20424;-60
2023/01/23 07:26:08;;;;;;;23.43;12.90;;;0.70;37.50;;;;;;6034278;23;20453;-60
2023/01/23 07:28:35;;;;;;;23.57;13.60;;;0.70;37.40;;;;;;6033718;23;20420;-59
2023/01/23 07:31:04;;;;;;;23.60;13.53;;;0.70;37.30;;;;;;6033400;23;20440;-60
2023/01/23 07:33:31;;;;;;;23.47;12.13;;;0.70;37.80;;;;;;6034242;23;20427;-60
2023/01/23 07:35:57;;;;;;;24.57;12.97;;;0.70;37.20;;;;;;6034461;23;20455;-60
2023/01/23 07:38:25;;;;;;;22.17;12.80;;;0.70;37.30;;;;;;6034180;23;20427;-60
2023/01/23 07:40:52;;;;;;;22.60;13.30;;;0.70;37.30;;;;;;6032700;23;20764;-61
2023/01/23 07:43:19;;;;;;;21.90;12.70;;;0.70;37.80;;;;;;6033989;23;20418;-61
2023/01/23 07:45:46;;;;;;;22.03;14.07;;;0.80;37.60;;;;;;6033266;23;20440;-60
2023/01/23 07:48:14;;;;;;;23.27;13.70;;;0.80;37.10;;;;;;6034662;23;20484;-61
2023/01/23 07:50:41;;;;;;;23.50;12.20;;;0.70;37.20;;;;;;6033504;23;21121;-60
2023/01/23 07:53:08;;;;;;;24.37;14.10;;;0.80;37.10;;;;;;6033766;23;20423;-59
2023/01/23 07:55:38;;;;;;;24.30;14.18;;;0.80;37.10;;;;;;5986801;23;1135891;-60
2023/01/23 07:58:05;;;;;;;24.97;13.40;;;0.90;37.20;;;;;;6035449;23;21018;-60
2023/01/23 08:00:31;;;;;;;25.00;12.83;;;0.90;37.20;;;;;;6033696;23;20761;-60
2023/01/23 08:02:58;;;;;;;23.57;13.27;;;0.90;37.10;;;;;;6035412;23;20958;-59
2023/01/23 08:05:27;;;;;;;26.40;14.40;;;0.90;37.20;;;;;;6035207;23;20420;-62
2023/01/23 08:07:53;;;;;;;23.60;13.60;;;0.90;37.30;;;;;;6035221;23;20416;-59
2023/01/23 08:10:20;;;;;;;26.73;14.90;;;0.90;37.30;;;;;;6031308;23;20428;-60
2023/01/23 08:12:47;;;;;;;25.63;14.70;;;0.90;37.30;;;;;;6034976;23;20424;-59
2023/01/23 08:15:13;;;;;;;29.20;15.97;;;1.00;37.40;;;;;;6033801;23;20427;-60
2023/01/23 08:17:40;;;;;;;27.93;15.43;;;1.00;37.50;;;;;;6035382;23;20440;-59
2023/01/23 08:20:09;;;;;;;24.47;15.10;;;1.00;37.50;;;;;;6034365;23;20424;-59
2023/01/23 08:22:39;;;;;;;27.83;16.37;;;1.00;37.50;;;;;;6035265;23;20487;-60
2023/01/23 08:25:07;;;;;;;25.77;15.00;;;1.10;37.60;;;;;;6033603;23;20806;-59
2023/01/23 08:27:34;;;;;;;26.63;15.17;;;1.10;37.70;;;;;;6034787;23;20467;-61
2023/01/23 08:30:01;;;;;;;26.63;15.17;;;1.10;37.70;;;;;;6034647;23;20420;-60
2023/01/23 08:32:28;;;;;;;28.33;15.60;;;1.10;37.80;;;;;;6033143;23;20436;-59
2023/01/23 08:34:54;;;;;;;23.43;13.53;;;1.10;37.90;;;;;;6035544;23;20754;-60
2023/01/23 08:37:21;;;;;;;24.87;14.83;;;1.10;37.90;;;;;;6034931;23;20820;-60
2023/01/23 08:39:49;;;;;;;23.17;13.50;;;1.10;37.80;;;;;;6033837;23;20424;-59
2023/01/23 08:42:16;;;;;;;23.30;13.30;;;1.10;37.90;;;;;;6034605;23;20444;-59
2023/01/23 08:44:43;;;;;;;24.90;14.30;;;1.10;38.00;;;;;;6033848;23;20420;-60
2023/01/23 08:47:09;;;;;;;24.53;15.00;;;1.10;38.00;;;;;;6035056;23;20440;-61
2023/01/23 08:49:36;;;;;;;22.80;14.10;;;1.10;38.00;;;;;;6034941;23;20424;-59
2023/01/23 08:52:05;;;;;;;21.77;12.90;;;1.10;37.80;;;;;;6034207;23;20420;-60
2023/01/23 08:54:31;;;;;;;25.27;14.67;;;1.10;37.70;;;;;;6035047;23;20545;-59
2023/01/23 08:56:59;;;;;;;21.33;13.40;;;1.10;37.60;;;;;;6034534;23;20456;-60
2023/01/23 08:59:26;;;;;;;22.93;12.00;;;1.10;37.50;;;;;;6035285;23;20809;-60
2023/01/23 09:01:53;;;;;;;23.50;12.90;;;1.20;37.50;;;;;;6033198;23;20445;-60
2023/01/23 09:04:20;;;;;;;21.97;12.50;;;1.20;37.30;;;;;;6034555;23;20420;-61
2023/01/23 09:06:46;;;;;;;21.37;11.93;;;1.20;37.00;;;;;;6034782;23;20981;-61
2023/01/23 09:09:13;;;;;;;20.63;11.63;;;1.30;36.70;;;;;;6034378;23;20427;-59
2023/01/23 09:11:40;;;;;;;28.03;14.20;;;1.30;36.80;;;;;;6034930;23;20496;-59
2023/01/23 09:14:08;;;;;;;25.23;12.77;;;1.40;36.80;;;;;;6034142;23;20430;-60
2023/01/23 09:16:35;;;;;;;22.07;11.83;;;1.40;36.40;;;;;;6034590;23;20440;-59
2023/01/23 09:19:01;;;;;;;20.33;11.37;;;1.40;36.10;;;;;;6034497;23;20420;-59
2023/01/23 09:21:28;;;;;;;21.00;11.57;;;1.40;36.30;;;;;;6034826;23;20448;-59
2023/01/23 09:23:56;;;;;;;25.60;12.70;;;1.50;36.30;;;;;;6033908;23;20428;-59
2023/01/23 09:26:23;;;;;;;21.20;12.33;;;1.50;36.00;;;;;;6034373;23;20447;-61
2023/01/23 09:28:50;;;;;;;24.37;13.10;;;1.50;36.00;;;;;;6034624;23;20420;-59
2023/01/23 09:31:19;;;;;;;24.33;12.67;;;1.50;35.90;;;;;;6033772;23;20447;-60
2023/01/23 09:33:45;;;;;;;23.63;12.70;;;1.50;35.80;;;;;;6034521;23;20486;-59
2023/01/23 09:36:12;;;;;;;24.27;13.57;;;1.50;35.70;;;;;;6034762;23;20797;-60
2023/01/23 09:38:39;;;;;;;20.30;11.13;;;1.50;35.70;;;;;;6033387;23;20424;-60
2023/01/23 09:41:14;;;;;;;25.83;13.93;;;1.50;36.30;;;;;;6034200;23;20451;-59
2023/01/23 09:43:49;;;;;;;20.70;11.73;;;1.60;35.90;;;;;;6033420;23;20413;-61
2023/01/23 09:46:23;;;;;;;22.10;12.87;;;1.60;35.70;;;;;;6033671;23;20451;-61
2023/01/23 09:48:53;;;;;;;21.80;12.47;;;1.70;35.70;;;;;;6034457;23;20404;-59
2023/01/23 09:51:25;;;;;;;19.40;11.57;;;1.70;35.50;;;;;;6034250;23;20408;-59
2023/01/23 09:53:54;;;;;;;25.23;14.03;;;1.70;35.40;;;;;;6034089;23;20405;-60
2023/01/23 09:56:30;;;;;;;23.50;12.07;;;1.70;35.30;;;;;;6034005;23;20448;-59
2023/01/23 09:59:02;;;;;;;25.17;13.67;;;1.80;35.10;;;;;;6033957;23;20784;-59
2023/01/23 10:01:31;;;;;;;20.97;12.13;;;1.90;35.20;;;;;;6033235;23;20451;-59
2023/01/23 10:03:59;;;;;;;23.47;13.57;;;1.90;35.00;;;;;;6034756;23;20730;-61
2023/01/23 10:06:29;;;;;;;20.93;11.47;;;2.00;34.80;;;;;;6034550;23;20448;-60
2023/01/23 10:09:20;;;;;;;24.87;14.17;;;2.00;34.70;;;;;;6034997;23;20508;-60
2023/01/23 10:11:57;;;;;;;27.57;15.27;;;1.90;34.70;;;;;;6036263;23;20400;-58
2023/01/23 10:14:46;;;;;;;24.20;12.83;;;1.90;34.50;;;;;;6035950;23;20408;-59
2023/01/23 10:17:23;;;;;;;24.83;13.27;;;1.80;34.60;;;;;;6036295;23;20447;-60
2023/01/23 10:20:14;;;;;;;26.13;13.00;;;1.70;34.90;;;;;;6035954;23;20404;-61
2023/01/23 10:22:47;;;;;;;21.30;12.07;;;1.80;35.20;;;;;;6035769;23;20962;-60
2023/01/23 10:25:18;;;;;;;22.47;12.70;;;1.70;35.20;;;;;;6035988;23;20411;-59
2023/01/23 10:27:47;;;;;;;28.80;14.60;;;1.70;35.30;;;;;;6036192;23;20411;-59
2023/01/23 10:30:22;;;;;;;25.97;13.90;;;1.70;35.40;;;;;;6032044;23;20427;-61
2023/01/23 10:32:55;;;;;;;25.97;14.10;;;1.70;35.60;;;;;;6036122;23;20810;-60
2023/01/23 10:35:28;;;;;;;23.53;14.03;;;1.80;35.60;;;;;;6033439;23;20440;-59
2023/01/23 10:38:02;;;;;;;24.57;13.77;;;1.90;35.40;;;;;;6035966;23;20408;-60
2023/01/23 10:43:14;;;;;;;25.43;12.70;;;2.10;35.10;;;;;;6035339;23;20515;-60
2023/01/23 10:45:42;;;;;;;25.70;14.70;;;2.10;34.60;;;;;;6035380;23;20451;-61
2023/01/23 10:48:38;;;;;;;25.00;13.43;;;2.20;34.50;;;;;;6036637;23;20495;-59
2023/01/23 10:51:39;;;;;;;26.10;13.70;;;2.30;34.60;;;;;;6031960;23;20534;-59
2023/01/23 10:54:12;;;;;;;23.20;14.60;;;2.40;34.30;;;;;;6021611;23;20454;-60
2023/01/23 10:56:47;;;;;;;23.07;12.97;;;2.40;33.90;;;;;;6035890;23;20450;-60
2023/01/23 10:59:28;;;;;;;29.77;15.20;;;2.40;33.60;;;;;;6036949;23;20411;-61
2023/01/23 11:01:57;;;;;;;24.60;12.57;;;2.40;33.90;;;;;;6035611;23;20447;-60
2023/01/23 11:04:26;;;;;;;22.33;13.07;;;2.40;34.00;;;;;;6036734;23;20988;-63
2023/01/23 11:07:13;;;;;;;25.20;14.60;;;2.40;33.90;;;;;;6046666;23;20471;-59
2023/01/23 11:09:47;;;;;;;22.70;12.60;;;2.40;33.80;;;;;;6047132;23;20405;-60
2023/01/23 11:12:17;;;;;;;26.07;14.30;;;2.40;33.60;;;;;;6046309;23;20401;-60
2023/01/23 11:14:44;;;;;;;25.03;13.53;;;2.40;33.60;;;;;;6047237;23;20404;-59
2023/01/23 11:17:18;;;;;;;24.73;13.40;;;2.40;33.80;;;;;;6046466;23;20444;-59
2023/01/23 11:19:47;;;;;;;27.50;15.57;;;2.40;34.00;;;;;;6040033;23;20401;-62
2023/01/23 11:22:33;;;;;;;25.37;13.97;;;2.50;33.90;;;;;;6035504;23;20451;-60
2023/01/23 11:25:00;;;;;;;27.70;16.43;;;2.60;33.60;;;;;;6036022;23;20408;-60
2023/01/23 11:27:29;;;;;;;27.03;14.40;;;2.60;33.40;;;;;;6035571;23;20443;-61
2023/01/23 11:30:24;;;;;;;28.53;16.20;;;2.70;33.40;;;;;;6032910;23;20420;-60
2023/01/23 11:32:57;;;;;;;23.43;13.37;;;2.70;33.30;;;;;;6035095;23;20401;-60
2023/01/23 11:35:29;;;;;;;23.97;13.97;;;2.80;33.00;;;;;;6034378;23;20409;-63
2023/01/23 11:38:02;;;;;;;23.07;14.53;;;2.80;32.80;;;;;;6035225;23;20867;-60
2023/01/23 11:40:28;;;;;;;22.30;14.37;;;2.90;32.70;;;;;;6033394;23;20412;-60
2023/01/23 11:42:55;;;;;;;28.70;13.57;;;2.90;32.50;;;;;;6035488;23;20447;-60
2023/01/23 11:45:38;;;;;;;20.87;13.70;;;3.00;32.40;;;;;;6033639;23;20745;-60
2023/01/23 11:48:21;;;;;;;22.37;13.50;;;3.10;32.20;;;;;;6035185;23;20411;-61
2023/01/23 11:50:50;;;;;;;28.33;13.67;;;3.20;32.00;;;;;;6035253;23;20412;-60
2023/01/23 11:53:24;;;;;;;25.53;14.23;;;3.20;31.80;;;;;;6035378;23;20769;-59
2023/01/23 11:56:24;;;;;;;21.13;12.00;;;3.20;31.90;;;;;;6033442;23;20455;-60
2023/01/23 11:59:13;;;;;;;23.37;12.53;;;3.20;31.50;;;;;;6016785;23;20424;-60
2023/01/23 12:01:50;;;;;;;20.87;11.97;;;3.20;31.50;;;;;;6034320;23;20436;-59
2023/01/23 12:04:45;;;;;;;25.60;12.63;;;3.20;31.70;;;;;;6034084;23;20408;-60
2023/01/23 12:07:19;;;;;;;26.37;14.37;;;3.20;31.90;;;;;;6035326;23;20444;-59
2023/01/23 12:09:58;;;;;;;27.90;14.63;;;3.20;31.90;;;;;;6035386;23;20471;-59
2023/01/23 12:12:38;;;;;;;24.70;12.90;;;3.20;31.90;;;;;;6034708;23;20400;-61
2023/01/23 12:15:13;;;;;;;21.40;12.10;;;3.30;31.80;;;;;;6033431;23;20404;-61
2023/01/23 12:17:47;;;;;;;23.47;13.67;;;3.20;31.60;;;;;;6035682;23;20455;-63
2023/01/23 12:20:36;;;;;;;27.23;14.03;;;3.20;31.50;;;;;;6033883;23;20412;-60
2023/01/23 12:23:18;;;;;;;21.70;12.87;;;3.10;31.70;;;;;;6034125;23;20977;-62
2023/01/23 12:25:52;;;;;;;23.73;14.07;;;3.10;31.90;;;;;;6033035;23;20972;-60
2023/01/23 12:28:39;;;;;;;25.87;13.17;;;3.00;32.10;;;;;;6035745;23;20604;-61
2023/01/23 12:31:19;;;;;;;23.33;14.00;;;2.90;32.50;;;;;;6032866;23;20443;-61
2023/01/23 12:33:55;;;;;;;23.10;13.40;;;2.90;32.70;;;;;;6034449;23;20407;-60
2023/01/23 12:36:38;;;;;;;25.27;13.60;;;2.90;33.00;;;;;;6034975;23;20447;-59
2023/01/23 12:39:18;;;;;;;23.87;13.37;;;2.90;33.20;;;;;;6035134;23;20408;-59
2023/01/23 12:41:52;;;;;;;22.10;12.20;;;2.90;33.40;;;;;;6034514;23;20405;-61
2023/01/23 12:44:24;;;;;;;19.17;11.37;;;2.90;33.20;;;;;;6034520;23;20771;-62
2023/01/23 12:46:55;;;;;;;26.97;14.50;;;2.90;33.20;;;;;;6034652;23;20448;-59
2023/01/23 12:49:28;;;;;;;27.47;15.20;;;2.90;33.20;;;;;;6033655;23;20405;-59
2023/01/23 12:52:01;;;;;;;28.07;13.30;;;2.90;33.20;;;;;;6034181;23;20404;-60
2023/01/23 12:54:35;;;;;;;22.70;13.10;;;2.90;33.30;;;;;;6034125;23;20405;-61
2023/01/23 12:57:05;;;;;;;25.10;13.90;;;2.90;33.40;;;;;;6034137;23;20519;-62